Latest Weather Observations for Melville Water

IDW60901

Issued at 6:11 pm WST Wednesday 28 September 2016 (issued every 10 minutes, with the page automatically refreshed every 10 minutes)

About weather observations | Map of Perth area stations | Latest observations for Perth area | Other Formats
Station Details ID: 009091 Name: INNER DOLPHIN PYLON Lat: -31.99 Lon: 115.83 Height: 0.0 m
Data from the previous 72 hours. | See also: Recent months at Melville Water
Date/Time
WST
Temp
°C
App
Temp
°C
Dew
Point
°C
Rel
Hum
%
Delta-T
°C
Wind Press
QNH
hPa
Press
MSL
hPa
Rain since
9am
mm
Dir  Spd
km/h
Gust
km/h
Spd
kts
Gust
kts
28/06:00pm - - - - - SSW 26 30 14 16 - - -
28/05:30pm - - - - - SW 24 30 13 16 - - -
28/05:00pm - - - - - SW 22 28 12 15 - - -
28/04:30pm - - - - - SW 22 28 12 15 - - -
28/04:00pm - - - - - SW 22 30 12 16 - - -
28/03:30pm - - - - - SW 24 32 13 17 - - -
28/03:00pm - - - - - SSW 20 30 11 16 - - -
28/02:30pm - - - - - SW 20 32 11 17 - - -
28/02:00pm - - - - - SW 22 32 12 17 - - -
28/01:30pm - - - - - SW 24 33 13 18 - - -
28/01:00pm - - - - - SSW 20 28 11 15 - - -
28/12:30pm - - - - - SW 20 28 11 15 - - -
28/12:00pm - - - - - SSW 20 28 11 15 - - -
28/11:30am - - - - - SSW 20 30 11 16 - - -
28/11:00am - - - - - SSW 19 28 10 15 - - -
28/10:30am - - - - - S 26 39 14 21 - - -
28/10:00am - - - - - S 24 35 13 19 - - -
28/09:30am - - - - - S 26 37 14 20 - - -
28/09:00am - - - - - S 24 32 13 17 - - -
28/08:30am - - - - - S 19 30 10 16 - - -
28/08:00am - - - - - SSE 22 33 12 18 - - -
28/07:30am - - - - - SSE 19 32 10 17 - - -
28/07:00am - - - - - S 17 20 9 11 - - -
28/06:30am - - - - - S 15 20 8 11 - - -
28/06:00am - - - - - SSE 17 20 9 11 - - -
28/05:30am - - - - - SSE 17 22 9 12 - - -
28/05:00am - - - - - SSE 19 24 10 13 - - -
28/04:30am - - - - - SSE 15 19 8 10 - - -
28/04:00am - - - - - SSE 13 19 7 10 - - -
28/03:30am - - - - - SSE 13 17 7 9 - - -
28/03:00am - - - - - S 19 24 10 13 - - -
28/02:30am - - - - - S 11 17 6 9 - - -
28/02:00am - - - - - S 17 22 9 12 - - -
28/01:30am - - - - - S 24 33 13 18 - - -
28/01:00am - - - - - S 24 32 13 17 - - -
28/12:30am - - - - - S 19 26 10 14 - - -
28/12:00am - - - - - S 22 37 12 20 - - -
 
Date/Time
WST
Temp
°C
App
Temp
°C
Dew
Point
°C
Rel
Hum
%
Delta-T
°C
Wind Press
QNH
hPa
Press
MSL
hPa
Rain since
9am
mm
Dir  Spd
km/h
Gust
km/h
Spd
kts
Gust
kts
27/11:30pm - - - - - SSW 35 48 19 26 - - -
27/11:22pm - - - - - SSW 28 46 15 25 - - -
27/11:00pm - - - - - SSW 33 43 18 23 - - -
27/10:30pm - - - - - SW 43 59 23 32 - - -
27/10:04pm - - - - - SW 39 59 21 32 - - -
27/10:00pm - - - - - SW 39 54 21 29 - - -
27/09:48pm - - - - - SW 43 61 23 33 - - -
27/09:30pm - - - - - SW 35 46 19 25 - - -
27/09:04pm - - - - - SW 37 67 20 36 - - -
27/09:00pm - - - - - SW 39 50 21 27 - - -
27/08:41pm - - - - - SW 41 59 22 32 - - -
27/08:30pm - - - - - SW 41 57 22 31 - - -
27/08:00pm - - - - - SW 44 57 24 31 - - -
27/07:33pm - - - - - SW 41 61 22 33 - - -
27/07:30pm - - - - - SW 39 48 21 26 - - -
27/07:07pm - - - - - WSW 30 56 16 30 - - -
27/07:00pm - - - - - SW 32 41 17 22 - - -
27/06:41pm - - - - - SW 43 63 23 34 - - -
27/06:30pm - - - - - SW 35 46 19 25 - - -
27/06:00pm - - - - - SW 46 70 25 38 - - -
27/05:58pm - - - - - SW 46 70 25 38 - - -
27/05:30pm - - - - - SW 46 59 25 32 - - -
27/05:00pm - - - - - SW 50 63 27 34 - - -
27/04:47pm - - - - - SW 46 65 25 35 - - -
27/04:30pm - - - - - SW 46 63 25 34 - - -
27/04:09pm - - - - - SW 43 61 23 33 - - -
27/04:00pm - - - - - SW 46 61 25 33 - - -
27/03:38pm - - - - - SW 43 63 23 34 - - -
27/03:30pm - - - - - WSW 46 59 25 32 - - -
27/03:22pm - - - - - WSW 41 59 22 32 - - -
27/03:00pm - - - - - WSW 43 56 23 30 - - -
27/02:38pm - - - - - WSW 35 56 19 30 - - -
27/02:30pm - - - - - SW 32 43 17 23 - - -
27/02:00pm - - - - - SW 43 56 23 30 - - -
27/01:41pm - - - - - WSW 50 63 27 34 - - -
27/01:30pm - - - - - W 32 59 17 32 - - -
27/01:06pm - - - - - W 35 56 19 30 - - -
27/01:00pm - - - - - W 37 48 20 26 - - -
27/12:47pm - - - - - WNW 35 57 19 31 - - -
27/12:33pm - - - - - WNW 30 48 16 26 - - -
27/12:30pm - - - - - WNW 28 43 15 23 - - -
27/12:06pm - - - - - WNW 33 52 18 28 - - -
27/12:00pm - - - - - WNW 32 46 17 25 - - -
27/11:43am - - - - - WNW 35 54 19 29 - - -
27/11:30am - - - - - WNW 32 46 17 25 - - -
27/11:00am - - - - - WNW 32 46 17 25 - - -
27/10:35am - - - - - WNW 35 54 19 29 - - -
27/10:30am - - - - - WNW 39 54 21 29 - - -
27/10:12am - - - - - WNW 30 50 16 27 - - -
27/10:00am - - - - - WNW 30 39 16 21 - - -
27/09:30am - - - - - WNW 28 39 15 21 - - -
27/09:00am - - - - - WNW 26 39 14 21 - - -
27/08:30am - - - - - W 28 43 15 23 - - -
27/08:00am - - - - - WNW 30 39 16 21 - - -
27/07:30am - - - - - WNW 22 33 12 18 - - -
27/07:00am - - - - - WNW 15 22 8 12 - - -
27/06:30am - - - - - WNW 15 22 8 12 - - -
27/06:00am - - - - - NW 19 28 10 15 - - -
27/05:30am - - - - - NW 11 17 6 9 - - -
27/05:00am - - - - - NNW 9 13 5 7 - - -
27/04:30am - - - - - NW 11 15 6 8 - - -
27/04:00am - - - - - WNW 11 17 6 9 - - -
27/03:30am - - - - - WNW 17 26 9 14 - - -
27/03:00am - - - - - WNW 19 28 10 15 - - -
27/02:30am - - - - - NW 13 20 7 11 - - -
27/02:00am - - - - - WNW 19 30 10 16 - - -
27/01:30am - - - - - W 22 32 12 17 - - -
27/01:00am - - - - - NW 13 17 7 9 - - -
27/12:30am - - - - - NW 13 22 7 12 - - -
27/12:00am - - - - - NNW 9 13 5 7 - - -
 
Date/Time
WST
Temp
°C
App
Temp
°C
Dew
Point
°C
Rel
Hum
%
Delta-T
°C
Wind Press
QNH
hPa
Press
MSL
hPa
Rain since
9am
mm
Dir  Spd
km/h
Gust
km/h
Spd
kts
Gust
kts
26/11:30pm - - - - - NW 9 17 5 9 - - -
26/11:00pm - - - - - W 13 20 7 11 - - -
26/10:30pm - - - - - W 19 26 10 14 - - -
26/10:00pm - - - - - WSW 20 26 11 14 - - -
26/09:30pm - - - - - WNW 9 13 5 7 - - -
26/09:00pm - - - - - WNW 9 15 5 8 - - -
26/08:30pm - - - - - WNW 9 15 5 8 - - -
26/08:00pm - - - - - WNW 11 17 6 9 - - -
26/07:30pm - - - - - WNW 11 19 6 10 - - -
26/07:00pm - - - - - WNW 15 20 8 11 - - -
26/06:30pm - - - - - WNW 15 22 8 12 - - -
26/06:00pm - - - - - W 13 19 7 10 - - -
26/05:30pm - - - - - W 19 26 10 14 - - -
26/05:00pm - - - - - WNW 17 24 9 13 - - -
26/04:30pm - - - - - WNW 20 30 11 16 - - -
26/04:00pm - - - - - WNW 22 30 12 16 - - -
26/03:30pm - - - - - WNW 24 33 13 18 - - -
26/03:00pm - - - - - WNW 20 32 11 17 - - -
26/02:30pm - - - - - W 22 33 12 18 - - -
26/02:00pm - - - - - WNW 22 30 12 16 - - -
26/01:30pm - - - - - WNW 20 30 11 16 - - -
26/01:00pm - - - - - WNW 17 32 9 17 - - -
26/12:30pm - - - - - W 22 30 12 16 - - -
26/12:00pm - - - - - WNW 17 26 9 14 - - -
26/11:30am - - - - - WNW 17 24 9 13 - - -
26/11:00am - - - - - WNW 19 30 10 16 - - -
26/10:30am - - - - - W 20 28 11 15 - - -
26/10:00am - - - - - W 22 28 12 15 - - -
26/09:30am - - - - - W 17 26 9 14 - - -
26/09:00am - - - - - NNW 13 20 7 11 - - -
26/08:30am - - - - - NE 11 13 6 7 - - -
26/08:00am - - - - - NE 9 13 5 7 - - -
26/07:30am - - - - - NE 11 15 6 8 - - -
26/07:00am - - - - - NNE 13 17 7 9 - - -
26/06:30am - - - - - NNE 7 11 4 6 - - -
26/06:00am - - - - - NE 11 13 6 7 - - -
26/05:30am - - - - - NE 9 11 5 6 - - -
26/05:00am - - - - - N 7 9 4 5 - - -
26/04:30am - - - - - NE 7 9 4 5 - - -
26/04:00am - - - - - N 6 9 3 5 - - -
26/03:30am - - - - - NNW 6 9 3 5 - - -
26/03:00am - - - - - N 6 7 3 4 - - -
26/02:30am - - - - - ENE 4 6 2 3 - - -
26/02:00am - - - - - E 6 7 3 4 - - -
26/01:30am - - - - - ENE 6 9 3 5 - - -
26/01:00am - - - - - ENE 7 9 4 5 - - -
26/12:30am - - - - - ESE 7 9 4 5 - - -
26/12:00am - - - - - SE 9 11 5 6 - - -
 
Date/Time
WST
Temp
°C
App
Temp
°C
Dew
Point
°C
Rel
Hum
%
Delta-T
°C
Wind Press
QNH
hPa
Press
MSL
hPa
Rain since
9am
mm
Dir  Spd
km/h
Gust
km/h
Spd
kts
Gust
kts
25/11:30pm - - - - - SSE 11 13 6 7 - - -
25/11:00pm - - - - - SE 13 15 7 8 - - -
25/10:30pm - - - - - SSE 11 15 6 8 - - -
25/10:00pm - - - - - SSE 13 17 7 9 - - -
25/09:30pm - - - - - S 15 17 8 9 - - -
25/09:00pm - - - - - S 15 19 8 10 - - -
25/08:30pm - - - - - S 13 17 7 9 - - -
25/08:00pm - - - - - S 13 17 7 9 - - -
25/07:30pm - - - - - SSW 15 20 8 11 - - -
25/07:00pm - - - - - SSW 20 26 11 14 - - -
25/06:30pm - - - - - SSW 24 32 13 17 - - -

Latest Capital City Observations: Canberra | Sydney | Melbourne | Brisbane | Adelaide | Perth | Hobart | Darwin

Other Formats:

Comma delimited format used in spreadsheet applications
http://www.bom.gov.au/fwo/IDW60901/IDW60901.95620.axf

JavaScript Object Notation format (JSON) in row-major order
http://www.bom.gov.au/fwo/IDW60901/IDW60901.95620.json